SCC544 KCAE-KSMS
Flight info
| Callsign | SCC544 |
|---|---|
| Flight time | N/A |
| Altitude | 3000 |
| Route | NOOKS PUUFF DDATA HAVPI FEDLU |
| Aircraft | SF40/M-V/N |
Departure
| Time | 2026-04-14 20:28 |
|---|---|
| Airport | Columbia Metropolitan Airport (KCAE) |
Arrival
| Time | N/A |
|---|---|
| Airport | Sumter Airport (KSMS) |
| Time | Latitude | Longitude | Altitude | Speed | Heading |
|---|---|---|---|---|---|
| 2026-04-14 20:09 | 33.94429 | -81.12480 | 223 ft | 0 kts | 42° |
| 2026-04-14 20:22 | 33.94424 | -81.12458 | 224 ft | 8 kts | 147° |
| 2026-04-14 20:23 | 33.94354 | -81.12445 | 224 ft | 11 kts | 174° |
| 2026-04-14 20:23 | 33.94301 | -81.12339 | 224 ft | 23 kts | 107° |
| 2026-04-14 20:23 | 33.94259 | -81.12140 | 224 ft | 0 kts | 105° |
| 2026-04-14 20:23 | 33.94243 | -81.12069 | 224 ft | 18 kts | 105° |
| 2026-04-14 20:24 | 33.94205 | -81.11900 | 224 ft | 20 kts | 104° |
| 2026-04-14 20:24 | 33.94201 | -81.11882 | 224 ft | 0 kts | 104° |
| 2026-04-14 20:24 | 33.94201 | -81.11880 | 224 ft | 2 kts | 104° |
| 2026-04-14 20:25 | 33.94184 | -81.11799 | 225 ft | 19 kts | 104° |
| 2026-04-14 20:25 | 33.94138 | -81.11592 | 226 ft | 12 kts | 104° |
| 2026-04-14 20:25 | 33.94112 | -81.11472 | 225 ft | 23 kts | 105° |
| 2026-04-14 20:25 | 33.94060 | -81.11253 | 224 ft | 34 kts | 104° |
| 2026-04-14 20:26 | 33.94018 | -81.11050 | 226 ft | 13 kts | 105° |
| 2026-04-14 20:26 | 33.93975 | -81.10918 | 224 ft | 20 kts | 145° |
| 2026-04-14 20:26 | 33.93930 | -81.10926 | 224 ft | 0 kts | 239° |
| 2026-04-14 20:26 | 33.93911 | -81.10964 | 224 ft | 13 kts | 238° |
| 2026-04-14 20:27 | 33.93849 | -81.11033 | 226 ft | 13 kts | 227° |
| 2026-04-14 20:27 | 33.93836 | -81.11112 | 226 ft | 0 kts | 281° |
| 2026-04-14 20:27 | 33.93900 | -81.11421 | 227 ft | 81 kts | 285° |
| 2026-04-14 20:27 | 33.94094 | -81.12367 | 279 ft | 142 kts | 286° |
| 2026-04-14 20:28 | 33.94228 | -81.12861 | 480 ft | 148 kts | 285° |
| 2026-04-14 20:28 | 33.94529 | -81.14146 | 682 ft | 194 kts | 283° |
| 2026-04-14 20:28 | 33.94870 | -81.15740 | 1130 ft | 192 kts | 284° |
| 2026-04-14 20:28 | 33.95602 | -81.17089 | 1669 ft | 200 kts | 318° |
| 2026-04-14 20:29 | 33.96849 | -81.17566 | 2189 ft | 201 kts | 359° |
| 2026-04-14 20:29 | 33.98167 | -81.16966 | 2716 ft | 209 kts | 39° |
| 2026-04-14 20:29 | 33.99141 | -81.15620 | 3115 ft | 221 kts | 52° |
| 2026-04-14 20:29 | 34.00115 | -81.14083 | 3178 ft | 238 kts | 52° |
| 2026-04-14 20:30 | 34.01104 | -81.12445 | 3175 ft | 243 kts | 59° |
| 2026-04-14 20:30 | 34.01543 | -81.10489 | 3179 ft | 240 kts | 91° |
| 2026-04-14 20:30 | 34.01356 | -81.08612 | 3175 ft | 222 kts | 101° |
| 2026-04-14 20:30 | 34.01078 | -81.06784 | 3188 ft | 222 kts | 101° |
| 2026-04-14 20:31 | 34.00704 | -81.04990 | 3183 ft | 219 kts | 114° |
| 2026-04-14 20:31 | 34.00130 | -81.03308 | 3182 ft | 217 kts | 116° |
| 2026-04-14 20:31 | 33.99359 | -81.01769 | 3180 ft | 213 kts | 133° |
| 2026-04-14 20:31 | 33.98304 | -81.00554 | 3177 ft | 213 kts | 136° |
| 2026-04-14 20:32 | 33.97637 | -80.98948 | 3169 ft | 221 kts | 99° |
| 2026-04-14 20:32 | 33.97659 | -80.97089 | 3181 ft | 221 kts | 88° |
| 2026-04-14 20:32 | 33.97638 | -80.95201 | 3257 ft | 228 kts | 97° |
| 2026-04-14 20:32 | 33.97445 | -80.93331 | 3817 ft | 221 kts | 99° |
| 2026-04-14 20:33 | 33.97300 | -80.91503 | 4374 ft | 219 kts | 96° |
| 2026-04-14 20:33 | 33.97174 | -80.89676 | 4947 ft | 219 kts | 98° |
| 2026-04-14 20:33 | 33.97008 | -80.87809 | 5150 ft | 236 kts | 98° |
| 2026-04-14 20:34 | 33.96594 | -80.83857 | 5163 ft | 234 kts | 98° |
| 2026-04-14 20:34 | 33.96403 | -80.81913 | 5166 ft | 234 kts | 98° |
| 2026-04-14 20:34 | 33.96202 | -80.79966 | 5169 ft | 234 kts | 98° |
| 2026-04-14 20:34 | 33.96002 | -80.78018 | 5165 ft | 235 kts | 98° |
| 2026-04-14 20:35 | 33.95804 | -80.76061 | 5172 ft | 235 kts | 98° |
| 2026-04-14 20:35 | 33.95601 | -80.74104 | 5173 ft | 235 kts | 98° |
| 2026-04-14 20:35 | 33.95401 | -80.72144 | 5174 ft | 235 kts | 99° |
| 2026-04-14 20:35 | 33.95198 | -80.70182 | 5174 ft | 237 kts | 99° |
| 2026-04-14 20:36 | 33.94986 | -80.68215 | 5169 ft | 233 kts | 103° |
| 2026-04-14 20:36 | 33.94313 | -80.66482 | 5169 ft | 229 kts | 128° |
| 2026-04-14 20:36 | 33.93399 | -80.64961 | 5169 ft | 228 kts | 125° |
| 2026-04-14 20:36 | 33.92613 | -80.63293 | 5171 ft | 230 kts | 119° |
| 2026-04-14 20:37 | 33.91886 | -80.61577 | 5179 ft | 230 kts | 120° |
| 2026-04-14 20:37 | 33.91111 | -80.59918 | 5178 ft | 230 kts | 122° |
| 2026-04-14 20:37 | 33.90211 | -80.58359 | 4885 ft | 222 kts | 137° |
| 2026-04-14 20:37 | 33.89091 | -80.57105 | 4535 ft | 219 kts | 141° |
| 2026-04-14 20:38 | 33.88004 | -80.55820 | 4193 ft | 220 kts | 137° |
| 2026-04-14 20:38 | 33.86978 | -80.54451 | 3850 ft | 220 kts | 136° |
| 2026-04-14 20:38 | 33.85935 | -80.53114 | 3516 ft | 217 kts | 137° |
| 2026-04-14 20:38 | 33.85252 | -80.52250 | 3280 ft | 215 kts | 137° |
| 2026-04-14 20:39 | 33.83907 | -80.50526 | 2823 ft | 211 kts | 135° |
| 2026-04-14 20:39 | 33.82902 | -80.49239 | 2512 ft | 211 kts | 135° |
| 2026-04-14 20:39 | 33.82236 | -80.48388 | 2424 ft | 213 kts | 136° |
| 2026-04-14 20:39 | 33.81214 | -80.47074 | 2306 ft | 216 kts | 136° |
| 2026-04-14 20:40 | 33.80202 | -80.45745 | 2179 ft | 216 kts | 130° |
| 2026-04-14 20:40 | 33.79690 | -80.44051 | 2053 ft | 221 kts | 94° |
| 2026-04-14 20:40 | 33.80097 | -80.42278 | 2019 ft | 222 kts | 57° |
| 2026-04-14 20:40 | 33.81255 | -80.41101 | 1991 ft | 218 kts | 20° |
| 2026-04-14 20:41 | 33.82717 | -80.40688 | 1970 ft | 218 kts | 16° |
| 2026-04-14 20:41 | 33.83961 | -80.39675 | 1975 ft | 219 kts | 50° |
| 2026-04-14 20:41 | 33.84849 | -80.38229 | 1981 ft | 218 kts | 53° |
| 2026-04-14 20:41 | 33.85838 | -80.36844 | 1980 ft | 213 kts | 46° |
| 2026-04-14 20:42 | 33.86888 | -80.35592 | 1990 ft | 211 kts | 45° |
| 2026-04-14 20:42 | 33.87842 | -80.34348 | 1982 ft | 198 kts | 47° |
| 2026-04-14 20:42 | 33.89777 | -80.31881 | 1982 ft | 203 kts | 47° |
| 2026-04-14 20:43 | 33.90748 | -80.30629 | 1986 ft | 205 kts | 46° |
| 2026-04-14 20:43 | 33.91729 | -80.29382 | 1990 ft | 206 kts | 46° |
| 2026-04-14 20:43 | 33.92707 | -80.28121 | 1971 ft | 206 kts | 46° |
| 2026-04-14 20:43 | 33.93690 | -80.26867 | 1998 ft | 206 kts | 47° |
| 2026-04-14 20:44 | 33.94667 | -80.25619 | 2001 ft | 207 kts | 48° |
| 2026-04-14 20:44 | 33.95655 | -80.24352 | 1977 ft | 205 kts | 47° |
| 2026-04-14 20:44 | 33.96626 | -80.23097 | 1978 ft | 205 kts | 48° |
| 2026-04-14 20:44 | 33.97609 | -80.21845 | 1979 ft | 204 kts | 48° |
| 2026-04-14 20:45 | 33.98580 | -80.20599 | 1987 ft | 205 kts | 47° |